createdAt,value
2022-08-03T00:01:41.572Z,71.16
2022-08-03T00:06:41.289Z,71.03
2022-08-03T00:09:11.286Z,71.02
2022-08-03T00:11:41.440Z,71.03
2022-08-03T00:14:10.968Z,71.51
2022-08-03T00:16:40.983Z,71.12
2022-08-03T00:19:11.045Z,71.18
2022-08-03T00:21:40.962Z,71.13
2022-08-03T00:24:11.169Z,70.96
2022-08-03T00:26:41.230Z,71.04
2022-08-03T00:29:11.035Z,71.04
2022-08-03T00:34:11.130Z,71.66
2022-08-03T00:36:41.048Z,71.96
2022-08-03T00:39:10.918Z,72.57
2022-08-03T00:41:41.034Z,72.23
2022-08-03T00:44:10.953Z,72.05
2022-08-03T00:49:11.087Z,72.65
2022-08-03T00:51:41.042Z,71.95
2022-08-03T00:54:11.143Z,72.12
2022-08-03T00:56:59.466Z,72.58
2022-08-03T00:59:11.936Z,73.25
2022-08-03T01:01:41.148Z,72.76
2022-08-03T01:04:10.999Z,73.01
2022-08-03T01:09:19.588Z,72.99
2022-08-03T01:12:00.701Z,72.84
2022-08-03T01:14:19.023Z,72.78
2022-08-03T01:16:49.171Z,72.84
2022-08-03T01:19:30.085Z,73.82
2022-08-03T01:21:57.002Z,74.12
2022-08-03T01:24:29.413Z,73.98
2022-08-03T01:26:54.975Z,73.77
2022-08-03T01:29:30.821Z,73.68
2022-08-03T01:32:54.552Z,73.23
2022-08-03T01:34:14.925Z,72.95
2022-08-03T01:36:45.750Z,73.04
2022-08-03T01:39:11.644Z,72.94
2022-08-03T01:44:29.522Z,73.26
2022-08-03T01:46:47.608Z,73.14
2022-08-03T01:49:12.597Z,73.77
2022-08-03T01:52:03.583Z,73.61
2022-08-03T01:59:15.428Z,73.58
2022-08-03T02:02:29.053Z,73.47
2022-08-03T02:04:13.628Z,74.13
2022-08-03T02:07:00.139Z,74.30
2022-08-03T02:09:12.531Z,74.35
2022-08-03T02:11:42.842Z,74.49
2022-08-03T02:16:43.953Z,74.84
2022-08-03T02:19:12.712Z,74.83
2022-08-03T02:21:56.981Z,75.31
2022-08-03T02:24:11.175Z,75.60
2022-08-03T02:29:17.689Z,76.02
2022-08-03T02:31:44.035Z,76.13
2022-08-03T02:34:13.432Z,75.73
2022-08-03T02:36:45.707Z,76.08
2022-08-03T02:39:14.970Z,75.97
2022-08-03T02:41:45.301Z,76.29
2022-08-03T02:44:12.667Z,75.79
2022-08-03T02:46:45.664Z,75.62
2022-08-03T02:49:40.652Z,76.00
2022-08-03T02:51:42.839Z,76.06
2022-08-03T02:54:16.143Z,75.87
2022-08-03T02:56:42.351Z,75.74
2022-08-03T02:59:12.290Z,75.56
2022-08-03T03:01:41.170Z,75.47
2022-08-03T03:04:11.950Z,76.16
2022-08-03T03:06:41.340Z,75.86
2022-08-03T03:09:11.347Z,75.58
2022-08-03T03:11:42.470Z,75.81
2022-08-03T03:14:12.418Z,75.76
2022-08-03T03:19:13.382Z,75.30
2022-08-03T03:21:42.165Z,76.57
2022-08-03T03:24:11.421Z,75.89
2022-08-03T03:26:42.592Z,75.80
2022-08-03T03:29:11.560Z,75.85
2022-08-03T03:31:41.202Z,75.79
2022-08-03T03:36:41.165Z,75.96
2022-08-03T03:39:15.783Z,76.09
2022-08-03T03:41:41.679Z,76.20
2022-08-03T03:44:12.260Z,76.17
2022-08-03T03:46:41.313Z,76.26
2022-08-03T03:49:11.979Z,76.25
2022-08-03T03:51:41.044Z,75.97
2022-08-03T03:54:11.069Z,76.58
2022-08-03T03:56:41.153Z,76.19
2022-08-03T03:59:11.447Z,76.52
2022-08-03T04:01:41.522Z,76.73
2022-08-03T04:06:51.173Z,76.82
2022-08-03T04:09:21.147Z,76.69
2022-08-03T04:11:48.008Z,76.82
2022-08-03T04:14:15.477Z,76.47
2022-08-03T04:16:45.205Z,76.39
2022-08-03T04:19:17.412Z,76.38
2022-08-03T04:21:46.432Z,76.36
2022-08-03T04:24:14.526Z,76.49
2022-08-03T04:29:13.413Z,76.93
2022-08-03T04:31:42.330Z,77.32
2022-08-03T04:34:11.581Z,77.24
2022-08-03T04:36:47.862Z,77.24
2022-08-03T04:39:17.205Z,77.32
2022-08-03T04:42:02.289Z,77.20
2022-08-03T04:44:13.451Z,77.08
2022-08-03T04:46:50.449Z,77.23
2022-08-03T04:51:41.840Z,77.25
2022-08-03T04:54:11.351Z,77.16
2022-08-03T04:56:41.534Z,76.68
2022-08-03T04:59:11.399Z,76.53
2022-08-03T05:01:41.204Z,76.88
2022-08-03T05:09:11.140Z,77.38
2022-08-03T05:14:11.056Z,77.09
2022-08-03T05:19:11.164Z,77.86
2022-08-03T05:21:51.895Z,78.86
2022-08-03T05:24:11.064Z,78.51
2022-08-03T05:26:41.157Z,77.42
2022-08-03T05:29:11.219Z,79.65
2022-08-03T05:31:41.297Z,78.16
2022-08-03T05:34:11.228Z,77.88
2022-08-03T05:36:41.090Z,77.59
2022-08-03T05:39:11.152Z,77.57
2022-08-03T05:41:41.145Z,77.70
2022-08-03T05:44:11.100Z,77.75
2022-08-03T05:46:41.268Z,77.66
2022-08-03T05:49:11.195Z,77.93
2022-08-03T05:51:41.086Z,77.92
2022-08-03T05:54:11.338Z,78.16
2022-08-03T05:56:41.678Z,77.77
2022-08-03T05:59:35.676Z,78.23
2022-08-03T06:01:41.141Z,78.51
2022-08-03T06:04:11.091Z,78.64
2022-08-03T06:09:11.137Z,78.41
2022-08-03T06:11:41.461Z,78.01
2022-08-03T06:14:11.287Z,77.45
2022-08-03T06:16:41.123Z,78.44
2022-08-03T06:19:11.097Z,78.02
2022-08-03T06:21:41.232Z,77.81
2022-08-03T06:24:11.346Z,78.21
2022-08-03T06:26:41.301Z,78.15
2022-08-03T06:29:11.108Z,78.69
2022-08-03T06:31:41.110Z,78.60
2022-08-03T06:34:33.268Z,77.98
2022-08-03T06:36:41.227Z,78.98
2022-08-03T06:39:12.287Z,78.10
2022-08-03T06:41:44.658Z,77.67
2022-08-03T06:44:11.382Z,78.78
2022-08-03T06:46:42.328Z,79.36
2022-08-03T06:49:11.329Z,79.83
2022-08-03T06:52:03.465Z,78.82
2022-08-03T06:54:11.413Z,76.61
2022-08-03T06:56:41.249Z,76.11
2022-08-03T07:00:06.177Z,74.94
2022-08-03T07:01:41.570Z,74.27
2022-08-03T07:04:11.278Z,72.69
2022-08-03T07:06:41.208Z,70.20
2022-08-03T07:09:11.114Z,68.04
2022-08-03T07:11:41.230Z,66.55
2022-08-03T07:14:11.232Z,65.51
2022-08-03T07:16:41.148Z,64.39
2022-08-03T07:19:11.335Z,61.74
2022-08-03T07:21:41.389Z,58.75
2022-08-03T07:24:11.134Z,58.08
2022-08-03T07:26:41.291Z,56.26
2022-08-03T07:29:15.090Z,55.94
2022-08-03T07:31:41.306Z,56.01
2022-08-03T07:34:11.608Z,55.85
2022-08-03T07:36:41.198Z,56.87
2022-08-03T07:39:14.722Z,57.34
2022-08-03T07:41:41.868Z,56.78
2022-08-03T07:44:11.258Z,56.37
2022-08-03T07:46:41.181Z,54.94
2022-08-03T07:49:11.503Z,54.86
2022-08-03T07:51:41.333Z,52.74
2022-08-03T07:54:11.220Z,51.93
2022-08-03T07:56:41.260Z,51.31
2022-08-03T07:59:11.143Z,51.09
2022-08-03T08:01:41.487Z,49.84
2022-08-03T08:04:11.181Z,49.08
2022-08-03T08:06:41.161Z,47.54
2022-08-03T08:09:11.275Z,49.35
2022-08-03T08:11:41.220Z,50.12
2022-08-03T08:14:11.675Z,49.98
2022-08-03T08:16:41.536Z,48.29
2022-08-03T08:19:11.121Z,49.44
2022-08-03T08:21:52.945Z,48.42
2022-08-03T08:24:18.018Z,47.95
2022-08-03T08:26:41.169Z,47.80
2022-08-03T08:29:11.405Z,47.80
2022-08-03T08:31:41.326Z,47.49
2022-08-03T08:34:11.373Z,48.67
2022-08-03T08:36:41.280Z,47.66
2022-08-03T08:39:11.304Z,47.17
2022-08-03T08:41:45.926Z,48.26
2022-08-03T08:44:11.286Z,48.20
2022-08-03T08:46:42.038Z,47.47
2022-08-03T08:49:12.753Z,48.17
2022-08-03T08:51:54.809Z,46.86
2022-08-03T08:54:12.688Z,46.48
2022-08-03T08:56:43.341Z,44.57
2022-08-03T08:59:11.978Z,43.73
2022-08-03T09:01:41.619Z,45.77
2022-08-03T09:04:11.697Z,46.02
2022-08-03T09:06:50.203Z,44.66
2022-08-03T09:09:11.238Z,45.16
2022-08-03T09:11:54.403Z,41.68
2022-08-03T09:16:55.657Z,41.89
2022-08-03T09:19:12.964Z,43.06
2022-08-03T09:21:41.270Z,43.96
2022-08-03T09:24:25.725Z,40.06
2022-08-03T09:26:50.082Z,42.85
2022-08-03T09:29:15.047Z,42.72
2022-08-03T09:31:44.671Z,43.60
2022-08-03T09:34:13.451Z,43.18
2022-08-03T09:36:43.602Z,43.35
2022-08-03T09:39:13.149Z,43.51
2022-08-03T09:41:44.892Z,42.76
2022-08-03T09:44:24.306Z,42.95
2022-08-03T09:46:50.172Z,41.74
2022-08-03T09:49:12.018Z,42.63
2022-08-03T09:52:32.046Z,42.86
2022-08-03T09:54:18.834Z,43.74
2022-08-03T09:56:43.516Z,43.45
2022-08-03T09:59:13.295Z,44.42
2022-08-03T10:01:41.389Z,45.15
2022-08-03T10:04:13.620Z,44.88
2022-08-03T10:06:43.080Z,45.12
2022-08-03T10:09:13.930Z,44.44
2022-08-03T10:11:42.757Z,44.17
2022-08-03T10:14:17.962Z,44.46
2022-08-03T10:16:41.255Z,44.94
2022-08-03T10:19:12.950Z,45.31
2022-08-03T10:21:47.833Z,44.78
2022-08-03T10:24:14.696Z,44.96
2022-08-03T10:26:49.892Z,44.22
2022-08-03T10:29:17.603Z,44.30
2022-08-03T10:31:57.336Z,44.83
2022-08-03T10:34:21.784Z,44.81
2022-08-03T10:36:42.835Z,44.27
2022-08-03T10:39:15.946Z,44.34
2022-08-03T10:41:45.254Z,44.34
2022-08-03T10:44:16.893Z,44.47
2022-08-03T10:46:44.966Z,44.46
2022-08-03T10:49:13.002Z,45.02
2022-08-03T10:51:43.430Z,45.18
2022-08-03T10:54:31.114Z,45.35
2022-08-03T10:56:51.310Z,45.24
2022-08-03T10:59:11.441Z,45.50
2022-08-03T11:01:58.766Z,45.88
2022-08-03T11:04:17.072Z,45.95
2022-08-03T11:06:41.422Z,46.32
2022-08-03T11:09:16.826Z,47.64
2022-08-03T11:11:42.443Z,46.41
2022-08-03T11:14:13.031Z,46.76
2022-08-03T11:16:44.874Z,45.83
2022-08-03T11:19:14.167Z,45.41
2022-08-03T11:21:53.132Z,46.28
2022-08-03T11:24:32.601Z,47.25
2022-08-03T11:27:05.773Z,46.59
2022-08-03T11:29:29.906Z,46.86
2022-08-03T11:31:50.631Z,46.68
2022-08-03T11:34:13.693Z,46.38
2022-08-03T11:37:01.079Z,46.62
2022-08-03T11:39:12.050Z,46.88
2022-08-03T11:41:44.831Z,47.53
2022-08-03T11:44:31.165Z,47.73
2022-08-03T11:46:42.222Z,46.21
2022-08-03T11:49:11.607Z,47.30
2022-08-03T11:51:41.361Z,46.66
2022-08-03T11:54:11.388Z,44.69
2022-08-03T11:56:44.053Z,45.12
2022-08-03T11:59:18.964Z,44.65
2022-08-03T12:01:41.837Z,43.28
2022-08-03T12:04:11.297Z,44.34
2022-08-03T12:06:59.397Z,44.49
2022-08-03T12:09:15.763Z,44.07
2022-08-03T12:11:41.342Z,43.38
2022-08-03T12:14:49.770Z,43.13
2022-08-03T12:16:46.333Z,43.39
2022-08-03T12:19:11.290Z,42.83
2022-08-03T12:21:45.609Z,43.29
2022-08-03T12:26:44.217Z,42.97
2022-08-03T12:29:16.206Z,42.83
2022-08-03T12:31:41.329Z,43.22
2022-08-03T12:34:12.597Z,43.48
2022-08-03T12:36:50.445Z,43.51
2022-08-03T12:39:12.378Z,43.62
2022-08-03T12:41:41.450Z,42.12
2022-08-03T12:44:11.452Z,42.92
2022-08-03T12:46:46.905Z,42.88
2022-08-03T12:49:14.550Z,43.28
2022-08-03T12:51:55.583Z,43.55
2022-08-03T12:54:16.900Z,43.87
2022-08-03T12:56:59.621Z,43.80
2022-08-03T12:59:25.089Z,44.23
2022-08-03T13:01:52.200Z,44.45
2022-08-03T13:04:16.612Z,44.75
2022-08-03T13:06:41.345Z,44.50
2022-08-03T13:09:11.553Z,45.16
2022-08-03T13:11:53.503Z,45.19
2022-08-03T13:14:13.535Z,45.35
2022-08-03T13:16:41.297Z,45.60
2022-08-03T13:19:15.418Z,46.04
2022-08-03T13:21:53.674Z,46.17
2022-08-03T13:24:11.373Z,46.28
2022-08-03T13:26:41.328Z,46.43
2022-08-03T13:29:11.573Z,46.75
2022-08-03T13:31:51.033Z,46.53
2022-08-03T13:34:11.426Z,46.33
2022-08-03T13:37:07.582Z,46.59
2022-08-03T13:39:11.344Z,46.86
2022-08-03T13:46:41.614Z,47.02
2022-08-03T13:49:11.499Z,47.30
2022-08-03T13:51:41.669Z,47.42
2022-08-03T13:54:11.557Z,47.50
2022-08-03T13:56:42.266Z,47.37
2022-08-03T13:59:11.544Z,47.81
2022-08-03T14:01:54.952Z,47.64
2022-08-03T14:04:21.805Z,47.63
2022-08-03T14:06:46.013Z,48.02
2022-08-03T14:09:12.644Z,48.26
2022-08-03T14:12:07.226Z,48.16
2022-08-03T14:14:11.880Z,48.09
2022-08-03T14:16:42.241Z,48.01
2022-08-03T14:19:11.735Z,48.07
2022-08-03T14:21:41.437Z,48.10
2022-08-03T14:24:11.430Z,48.12
2022-08-03T14:26:41.406Z,48.13
2022-08-03T14:29:11.537Z,48.16
2022-08-03T14:32:09.914Z,48.02
2022-08-03T14:36:41.415Z,48.41
2022-08-03T14:39:11.877Z,48.80
2022-08-03T14:44:11.640Z,49.22
2022-08-03T14:46:41.473Z,49.46
2022-08-03T14:50:32.031Z,49.35
2022-08-03T14:51:51.463Z,49.56
2022-08-03T14:54:11.671Z,49.91
2022-08-03T14:56:41.501Z,49.95
2022-08-03T14:59:11.385Z,50.06
2022-08-03T15:02:02.388Z,50.24
2022-08-03T15:04:11.357Z,50.29
2022-08-03T15:06:41.408Z,50.42
2022-08-03T15:09:21.638Z,50.54
2022-08-03T15:11:41.593Z,50.58
2022-08-03T15:14:13.286Z,50.68
2022-08-03T15:16:41.448Z,50.99
2022-08-03T15:20:02.355Z,51.12
2022-08-03T15:21:46.717Z,51.32
2022-08-03T15:24:11.401Z,51.43
2022-08-03T15:26:41.906Z,51.63
2022-08-03T15:30:07.360Z,51.76
2022-08-03T15:34:11.760Z,51.69
2022-08-03T15:36:41.536Z,51.95
2022-08-03T15:39:11.475Z,52.20
2022-08-03T15:41:41.612Z,52.18
2022-08-03T15:44:11.423Z,52.21
2022-08-03T15:46:41.756Z,52.01
2022-08-03T15:49:11.410Z,51.98
2022-08-03T15:51:41.419Z,52.18
2022-08-03T15:54:11.838Z,52.19
2022-08-03T15:56:44.361Z,52.31
2022-08-03T15:59:13.869Z,52.35
2022-08-03T16:01:41.925Z,52.33
2022-08-03T16:04:11.498Z,52.35
2022-08-03T16:06:41.582Z,52.43
2022-08-03T16:09:23.917Z,52.62
2022-08-03T16:11:41.698Z,52.76
2022-08-03T16:14:30.931Z,52.99
2022-08-03T16:16:41.566Z,53.04
2022-08-03T16:19:11.566Z,53.01
2022-08-03T16:21:48.173Z,53.12
2022-08-03T16:24:15.239Z,53.22
2022-08-03T16:29:22.485Z,53.20
2022-08-03T16:34:11.623Z,53.36
2022-08-03T16:36:41.714Z,53.46
2022-08-03T16:39:11.541Z,53.60
2022-08-03T16:41:54.156Z,53.72
2022-08-03T16:44:11.565Z,53.97
2022-08-03T16:46:43.731Z,53.92
2022-08-03T16:49:12.089Z,54.01
2022-08-03T16:54:12.514Z,53.92
2022-08-03T16:56:41.503Z,54.11
2022-08-03T16:59:11.597Z,54.29
2022-08-03T17:04:11.778Z,54.46
2022-08-03T17:06:44.732Z,54.64
2022-08-03T17:09:13.476Z,54.74
2022-08-03T17:11:46.665Z,54.90
2022-08-03T17:14:13.379Z,54.90
2022-08-03T17:16:51.888Z,54.99
2022-08-03T17:19:13.266Z,55.08
2022-08-03T17:21:50.846Z,55.16
2022-08-03T17:24:18.745Z,55.13
2022-08-03T17:26:45.815Z,55.23
2022-08-03T17:29:13.339Z,55.40
2022-08-03T17:34:11.869Z,55.56
2022-08-03T17:37:03.203Z,55.66
2022-08-03T17:39:13.801Z,55.76
2022-08-03T17:44:15.808Z,55.84
2022-08-03T17:46:41.671Z,56.00
2022-08-03T17:49:23.815Z,56.10
2022-08-03T17:51:46.395Z,56.35
2022-08-03T17:54:18.483Z,56.29
2022-08-03T17:59:50.738Z,56.35
2022-08-03T18:02:05.658Z,56.58
2022-08-03T18:04:12.551Z,56.56
2022-08-03T18:06:55.658Z,56.49
2022-08-03T18:10:05.317Z,56.61
2022-08-03T18:11:46.209Z,56.93
2022-08-03T18:14:16.251Z,56.87
2022-08-03T18:16:44.456Z,57.13
2022-08-03T18:22:03.303Z,57.59
2022-08-03T18:24:12.022Z,57.75
2022-08-03T18:26:41.969Z,57.90
2022-08-03T18:29:12.627Z,57.88
2022-08-03T18:34:17.323Z,58.26
2022-08-03T18:36:45.530Z,58.35
2022-08-03T18:39:11.914Z,58.29
2022-08-03T18:44:37.650Z,58.77
2022-08-03T18:47:07.231Z,58.81
2022-08-03T18:49:23.647Z,58.80
2022-08-03T18:54:59.078Z,59.06
2022-08-03T18:56:47.110Z,58.97
2022-08-03T18:59:18.738Z,59.02
2022-08-03T19:02:00.914Z,59.21
2022-08-03T19:04:13.304Z,59.24
2022-08-03T19:06:44.200Z,59.33
2022-08-03T19:09:22.023Z,59.33
2022-08-03T19:12:14.065Z,59.60
2022-08-03T19:14:15.789Z,59.63
2022-08-03T19:16:46.984Z,59.68
2022-08-03T19:19:14.594Z,59.61
2022-08-03T19:21:43.586Z,59.82
2022-08-03T19:24:12.902Z,59.77
2022-08-03T19:26:41.517Z,59.95
2022-08-03T19:29:15.156Z,59.93
2022-08-03T19:31:58.712Z,60.15
2022-08-03T19:34:12.696Z,60.29
2022-08-03T19:36:43.793Z,60.47
2022-08-03T19:39:13.113Z,60.40
2022-08-03T19:41:51.535Z,60.52
2022-08-03T19:44:20.179Z,60.63
2022-08-03T19:46:46.551Z,60.86
2022-08-03T19:49:15.576Z,60.68
2022-08-03T19:52:02.215Z,60.83
2022-08-03T19:54:13.863Z,60.83
2022-08-03T19:56:45.287Z,60.86
2022-08-03T19:59:13.330Z,60.77
2022-08-03T20:01:50.748Z,61.03
2022-08-03T20:04:12.506Z,61.10
2022-08-03T20:06:42.947Z,61.13
2022-08-03T20:09:11.883Z,61.11
2022-08-03T20:11:43.643Z,61.26
2022-08-03T20:14:11.833Z,61.35
2022-08-03T20:16:42.106Z,61.46
2022-08-03T20:19:14.075Z,61.33
2022-08-03T20:21:44.027Z,61.50
2022-08-03T20:24:24.246Z,61.50
2022-08-03T20:26:46.982Z,61.64
2022-08-03T20:29:14.139Z,61.59
2022-08-03T20:31:41.694Z,61.79
2022-08-03T20:34:11.583Z,61.80
2022-08-03T20:36:41.546Z,61.90
2022-08-03T20:39:11.958Z,61.84
2022-08-03T20:41:41.693Z,61.97
2022-08-03T20:44:11.591Z,61.95
2022-08-03T20:49:11.852Z,61.92
2022-08-03T20:51:49.543Z,62.24
2022-08-03T20:54:23.174Z,62.48
2022-08-03T20:56:42.903Z,62.53
2022-08-03T20:59:14.929Z,62.51
2022-08-03T21:01:41.625Z,63.04
2022-08-03T21:04:11.633Z,63.05
2022-08-03T21:06:45.524Z,63.27
2022-08-03T21:09:17.717Z,63.37
2022-08-03T21:11:46.419Z,63.76
2022-08-03T21:12:57.500Z,57.30
2022-08-03T21:14:17.080Z,63.86
2022-08-03T21:16:43.989Z,63.83
2022-08-03T21:19:12.290Z,63.71
2022-08-03T21:21:45.413Z,63.70
2022-08-03T21:24:14.479Z,63.77
2022-08-03T21:26:42.663Z,63.68
2022-08-03T21:29:13.108Z,63.75
2022-08-03T21:31:42.485Z,63.88
2022-08-03T21:34:11.620Z,63.97
2022-08-03T21:36:41.908Z,63.96
2022-08-03T21:39:11.968Z,63.90
2022-08-03T21:41:41.606Z,64.11
2022-08-03T21:44:12.055Z,63.99
2022-08-03T21:46:43.666Z,63.93
2022-08-03T21:50:04.560Z,63.84
2022-08-03T21:51:41.804Z,64.19
2022-08-03T21:54:12.289Z,64.14
2022-08-03T21:56:44.613Z,64.09
2022-08-03T21:59:16.826Z,63.99
2022-08-03T22:01:44.514Z,64.23
2022-08-03T22:04:53.892Z,64.29
2022-08-03T22:06:43.413Z,64.43
2022-08-03T22:09:12.140Z,64.39
2022-08-03T22:11:43.259Z,64.54
2022-08-03T22:14:11.691Z,64.56
2022-08-03T22:16:41.722Z,64.73
2022-08-03T22:19:11.831Z,64.62
2022-08-03T22:24:14.723Z,64.90
2022-08-03T22:26:51.995Z,64.89
2022-08-03T22:29:11.668Z,64.78
2022-08-03T22:31:58.171Z,64.97
2022-08-03T22:34:11.885Z,65.04
2022-08-03T22:36:41.869Z,65.05
2022-08-03T22:39:12.149Z,64.88
2022-08-03T22:41:41.763Z,64.98
2022-08-03T22:44:11.728Z,64.98
2022-08-03T22:46:43.106Z,64.92
2022-08-03T22:49:12.540Z,64.91
2022-08-03T22:54:11.657Z,65.09
2022-08-03T22:56:42.268Z,65.11
2022-08-03T22:59:40.283Z,65.15
2022-08-03T23:01:42.846Z,65.27
2022-08-03T23:04:12.204Z,65.09
2022-08-03T23:06:41.877Z,65.21
2022-08-03T23:09:13.055Z,65.06
2022-08-03T23:11:45.487Z,65.09
2022-08-03T23:14:14.042Z,65.07
2022-08-03T23:16:44.110Z,65.05
2022-08-03T23:19:16.439Z,64.92
2022-08-03T23:24:29.465Z,65.32
2022-08-03T23:26:42.291Z,65.40
2022-08-03T23:29:15.502Z,65.11
2022-08-03T23:31:43.645Z,65.20
2022-08-03T23:36:42.436Z,65.55
2022-08-03T23:39:12.241Z,65.39
2022-08-03T23:41:43.731Z,65.57
2022-08-03T23:44:12.630Z,65.88
2022-08-03T23:46:43.645Z,65.86
2022-08-03T23:49:11.696Z,65.85
2022-08-03T23:51:51.334Z,66.42
2022-08-03T23:54:25.720Z,66.26
2022-08-03T23:59:22.968Z,66.00
